Time;durP1;ratioP1;P1;durP2;ratioP2;P2;SDS_P1;SDS_P2;PMS_P1;PMS_P2;Temp;Humidity;BMP_temperature;BMP_pressure;BME280_temperature;BME280_humidity;BME280_pressure;Samples;Min_cycle;Max_cycle;Signal;HPM_P1;HPM_P2
2022/07/10 00:00:00;;;;;;;5.50;1.10;;;;;;;;;;5055274;28;20254;-62
2022/07/10 00:02:26;;;;;;;7.32;0.98;;;;;;;;;;5054912;28;20211;-62
2022/07/10 00:04:51;;;;;;;4.72;1.00;;;;;;;;;;5054125;28;20584;-62
2022/07/10 00:07:16;;;;;;;4.82;1.05;;;;;;;;;;5037090;28;20567;-62
2022/07/10 00:09:42;;;;;;;5.00;1.13;;;;;;;;;;5055060;28;20670;-62
2022/07/10 00:12:07;;;;;;;5.88;1.00;;;;;;;;;;5053803;28;20211;-62
2022/07/10 00:14:32;;;;;;;5.60;1.00;;;;;;;;;;5050668;28;20239;-62
2022/07/10 00:16:58;;;;;;;5.93;1.02;;;;;;;;;;5043538;28;20227;-62
2022/07/10 00:19:23;;;;;;;4.95;1.00;;;;;;;;;;5033711;28;20651;-62
2022/07/10 00:21:48;;;;;;;7.00;1.20;;;;;;;;;;5035128;28;20218;-62
2022/07/10 00:24:13;;;;;;;6.53;1.10;;;;;;;;;;5034616;28;20208;-62
2022/07/10 00:26:39;;;;;;;6.50;1.15;;;;;;;;;;5034237;28;20208;-62
2022/07/10 00:29:04;;;;;;;6.55;1.02;;;;;;;;;;5034406;28;20261;-62
2022/07/10 00:31:29;;;;;;;5.47;1.27;;;;;;;;;;5023437;28;20215;-61
2022/07/10 00:33:55;;;;;;;7.72;1.27;;;;;;;;;;5014900;28;20221;-62
2022/07/10 00:36:20;;;;;;;7.60;1.33;;;;;;;;;;5014653;28;20278;-62
2022/07/10 00:38:45;;;;;;;7.95;1.25;;;;;;;;;;5022519;28;20251;-62
2022/07/10 00:41:11;;;;;;;6.00;1.27;;;;;;;;;;4996918;28;20761;-62
2022/07/10 00:44:00;;;;;;;5.13;1.00;;;;;;;;;;5014936;28;20209;-62
2022/07/10 00:46:26;;;;;;;6.00;1.17;;;;;;;;;;5026236;28;20677;-61
2022/07/10 00:48:51;;;;;;;9.10;1.55;;;;;;;;;;5016942;28;20203;-61
2022/07/10 00:51:17;;;;;;;8.50;1.10;;;;;;;;;;5033994;28;20315;-62
2022/07/10 00:53:44;;;;;;;6.15;1.30;;;;;;;;;;5015859;28;20218;-62
2022/07/10 00:56:10;;;;;;;6.10;1.27;;;;;;;;;;5033630;28;20776;-63
2022/07/10 00:58:35;;;;;;;6.28;1.10;;;;;;;;;;5016933;28;20207;-62
2022/07/10 01:01:01;;;;;;;5.47;1.23;;;;;;;;;;5033061;28;20218;-62
2022/07/10 01:03:26;;;;;;;7.80;1.55;;;;;;;;;;5016581;28;20232;-62
2022/07/10 01:05:51;;;;;;;5.88;1.08;;;;;;;;;;5034212;28;20200;-62
2022/07/10 01:08:17;;;;;;;7.07;1.27;;;;;;;;;;5022245;28;20223;-62
2022/07/10 01:10:42;;;;;;;4.05;1.00;;;;;;;;;;5012226;28;20244;-62
2022/07/10 01:13:07;;;;;;;6.13;1.65;;;;;;;;;;5019324;28;20243;-61
2022/07/10 01:15:33;;;;;;;5.55;1.10;;;;;;;;;;5015615;28;20288;-62
2022/07/10 01:17:58;;;;;;;4.88;1.20;;;;;;;;;;5030566;28;20289;-61
2022/07/10 01:20:29;;;;;;;5.15;0.98;;;;;;;;;;5009262;28;20295;-62
2022/07/10 01:22:54;;;;;;;5.65;1.17;;;;;;;;;;5004840;28;20212;-62
2022/07/10 01:25:19;;;;;;;5.05;1.00;;;;;;;;;;5003386;28;20223;-61
2022/07/10 01:27:45;;;;;;;5.63;1.20;;;;;;;;;;4997134;28;20223;-62
2022/07/10 01:30:10;;;;;;;7.05;1.33;;;;;;;;;;4993980;28;20215;-62
2022/07/10 01:32:36;;;;;;;7.40;1.30;;;;;;;;;;4996736;28;20212;-62
2022/07/10 01:35:01;;;;;;;3.15;0.90;;;;;;;;;;5020864;28;20232;-62
2022/07/10 01:37:27;;;;;;;6.60;1.35;;;;;;;;;;5019921;28;20259;-62
2022/07/10 01:39:52;;;;;;;6.63;0.90;;;;;;;;;;5003701;28;20225;-62
2022/07/10 01:42:17;;;;;;;7.78;1.75;;;;;;;;;;5002439;28;20219;-62
2022/07/10 01:44:42;;;;;;;7.05;1.30;;;;;;;;;;5003826;28;20303;-62
2022/07/10 01:47:08;;;;;;;4.70;1.13;;;;;;;;;;5003659;28;20208;-62
2022/07/10 01:49:34;;;;;;;5.60;1.13;;;;;;;;;;5019021;28;20215;-62
2022/07/10 01:51:59;;;;;;;5.10;1.40;;;;;;;;;;5015243;28;20199;-62
2022/07/10 01:54:25;;;;;;;6.90;1.27;;;;;;;;;;5012059;28;20810;-62
2022/07/10 01:56:50;;;;;;;5.32;1.02;;;;;;;;;;4998781;28;20211;-62
2022/07/10 01:59:15;;;;;;;3.92;1.27;;;;;;;;;;5013643;28;20868;-61
2022/07/10 02:01:40;;;;;;;7.45;1.45;;;;;;;;;;5023367;28;20235;-62
2022/07/10 02:06:50;;;;;;;6.78;1.20;;;;;;;;;;5023228;28;20241;-62
2022/07/10 02:09:16;;;;;;;5.75;1.15;;;;;;;;;;5022431;28;20310;-62
2022/07/10 02:11:41;;;;;;;4.82;1.30;;;;;;;;;;5020189;28;20318;-62
2022/07/10 02:14:08;;;;;;;5.80;1.17;;;;;;;;;;5012762;28;20228;-61
2022/07/10 02:16:34;;;;;;;5.07;1.00;;;;;;;;;;4995483;28;20260;-62
2022/07/10 02:18:59;;;;;;;5.53;1.35;;;;;;;;;;5015682;28;20863;-61
2022/07/10 02:21:24;;;;;;;7.63;1.40;;;;;;;;;;5022296;28;20220;-62
2022/07/10 02:23:50;;;;;;;8.38;1.30;;;;;;;;;;5022742;28;20413;-62
2022/07/10 02:26:15;;;;;;;7.07;1.40;;;;;;;;;;5021361;28;20219;-61
2022/07/10 02:28:40;;;;;;;7.22;1.50;;;;;;;;;;5018902;28;20208;-62
2022/07/10 02:31:06;;;;;;;5.10;1.40;;;;;;;;;;5002131;28;20224;-61
2022/07/10 02:33:31;;;;;;;6.75;1.40;;;;;;;;;;5003227;28;20275;-61
2022/07/10 02:35:56;;;;;;;4.95;1.00;;;;;;;;;;4995932;28;20231;-61
2022/07/10 02:38:22;;;;;;;7.00;1.38;;;;;;;;;;4995805;28;20266;-61
2022/07/10 02:40:47;;;;;;;6.30;1.30;;;;;;;;;;5014526;28;20245;-61
2022/07/10 02:43:12;;;;;;;8.20;1.38;;;;;;;;;;5020840;28;20226;-61
2022/07/10 02:45:38;;;;;;;5.47;1.38;;;;;;;;;;5015040;28;20291;-62
2022/07/10 02:48:04;;;;;;;7.65;1.77;;;;;;;;;;5002701;28;20744;-61
2022/07/10 02:50:29;;;;;;;6.30;1.35;;;;;;;;;;5002596;28;20208;-61
2022/07/10 02:52:54;;;;;;;5.47;1.25;;;;;;;;;;5001982;28;20208;-62
2022/07/10 02:55:19;;;;;;;4.70;1.35;;;;;;;;;;5002271;28;20228;-62
2022/07/10 02:57:45;;;;;;;4.45;1.10;;;;;;;;;;4998022;28;20573;-62
2022/07/10 03:00:11;;;;;;;4.63;1.25;;;;;;;;;;4993948;28;20216;-62
2022/07/10 03:02:36;;;;;;;5.68;1.30;;;;;;;;;;5014075;28;20230;-62
2022/07/10 03:05:02;;;;;;;4.72;1.20;;;;;;;;;;5018333;28;20224;-62
2022/07/10 03:07:27;;;;;;;6.07;1.40;;;;;;;;;;5021322;28;20247;-61
2022/07/10 03:09:53;;;;;;;7.00;1.30;;;;;;;;;;5022485;28;20208;-61
2022/07/10 03:12:18;;;;;;;6.45;1.40;;;;;;;;;;5021546;28;20577;-62
2022/07/10 03:14:44;;;;;;;5.45;1.73;;;;;;;;;;5007001;28;20224;-62
2022/07/10 03:17:09;;;;;;;7.28;1.30;;;;;;;;;;5002402;28;20244;-62
2022/07/10 03:19:34;;;;;;;7.07;1.40;;;;;;;;;;5000626;28;20214;-61
2022/07/10 03:21:59;;;;;;;7.00;1.40;;;;;;;;;;4994306;28;20220;-61
2022/07/10 03:24:25;;;;;;;7.25;1.30;;;;;;;;;;4994214;28;20204;-61
2022/07/10 03:26:50;;;;;;;5.65;1.52;;;;;;;;;;4996556;28;20683;-61
2022/07/10 03:29:15;;;;;;;6.97;1.52;;;;;;;;;;5000828;28;20216;-62
2022/07/10 03:31:41;;;;;;;6.20;1.30;;;;;;;;;;5003100;28;20216;-62
2022/07/10 03:34:06;;;;;;;8.57;1.70;;;;;;;;;;5001982;28;20239;-62
2022/07/10 03:36:31;;;;;;;6.72;1.55;;;;;;;;;;5002173;28;20253;-62
2022/07/10 03:38:57;;;;;;;5.15;1.15;;;;;;;;;;5002240;28;20240;-61
2022/07/10 03:41:22;;;;;;;5.53;1.40;;;;;;;;;;5020328;28;20203;-61
2022/07/10 03:43:47;;;;;;;5.38;1.38;;;;;;;;;;5008028;28;20662;-62
2022/07/10 03:46:13;;;;;;;6.85;1.35;;;;;;;;;;4993198;28;20312;-61
2022/07/10 03:48:38;;;;;;;8.60;1.48;;;;;;;;;;4993289;28;20205;-62
2022/07/10 03:51:03;;;;;;;9.73;1.45;;;;;;;;;;5000536;28;20219;-62
2022/07/10 03:53:29;;;;;;;5.57;1.40;;;;;;;;;;5001544;28;20718;-62
2022/07/10 03:55:54;;;;;;;5.97;1.40;;;;;;;;;;5001324;28;20631;-62
2022/07/10 03:58:19;;;;;;;7.38;1.98;;;;;;;;;;5001060;28;20235;-62
2022/07/10 04:00:45;;;;;;;6.38;1.27;;;;;;;;;;5001387;28;20570;-62
2022/07/10 04:03:10;;;;;;;4.55;1.33;;;;;;;;;;5001261;28;20236;-62
2022/07/10 04:05:35;;;;;;;7.78;1.35;;;;;;;;;;5019865;28;20883;-62
2022/07/10 04:08:01;;;;;;;10.85;1.60;;;;;;;;;;5016080;28;20548;-62
2022/07/10 04:10:27;;;;;;;6.15;1.30;;;;;;;;;;5015245;28;20223;-62
2022/07/10 04:12:52;;;;;;;7.97;1.52;;;;;;;;;;5005981;28;20702;-61
2022/07/10 04:15:17;;;;;;;6.80;1.33;;;;;;;;;;5003785;28;20232;-61
2022/07/10 04:17:43;;;;;;;5.43;1.25;;;;;;;;;;5004269;28;20204;-62
2022/07/10 04:20:08;;;;;;;5.38;1.30;;;;;;;;;;5004277;28;20213;-61
2022/07/10 04:22:34;;;;;;;8.70;1.55;;;;;;;;;;5004884;28;20671;-61
2022/07/10 04:24:59;;;;;;;5.90;1.50;;;;;;;;;;5004746;28;20419;-61
2022/07/10 04:27:24;;;;;;;8.52;1.40;;;;;;;;;;5020892;28;20694;-62
2022/07/10 04:29:49;;;;;;;6.13;1.65;;;;;;;;;;5003781;28;20216;-63
2022/07/10 04:32:15;;;;;;;5.63;1.42;;;;;;;;;;4996016;28;20310;-61
2022/07/10 04:34:40;;;;;;;5.78;1.25;;;;;;;;;;4999674;28;20221;-62
2022/07/10 04:37:07;;;;;;;6.30;1.40;;;;;;;;;;5005156;28;20216;-62
2022/07/10 04:39:32;;;;;;;8.38;1.50;;;;;;;;;;5006521;28;20286;-63
2022/07/10 04:41:58;;;;;;;6.72;1.42;;;;;;;;;;5005758;28;20296;-62
2022/07/10 04:44:23;;;;;;;8.02;1.40;;;;;;;;;;5004698;28;20209;-62
2022/07/10 04:46:48;;;;;;;5.85;1.23;;;;;;;;;;5003893;28;20709;-61
2022/07/10 04:49:14;;;;;;;6.10;1.55;;;;;;;;;;5003884;28;20208;-62
2022/07/10 04:51:39;;;;;;;8.30;1.40;;;;;;;;;;4997145;28;20299;-61
2022/07/10 04:54:04;;;;;;;8.30;1.33;;;;;;;;;;4995985;28;20718;-62
2022/07/10 04:56:30;;;;;;;6.88;1.40;;;;;;;;;;4999703;28;20721;-62
2022/07/10 04:58:55;;;;;;;6.38;1.35;;;;;;;;;;5003498;28;20231;-61
2022/07/10 05:01:20;;;;;;;6.47;1.33;;;;;;;;;;5004585;28;20216;-62
2022/07/10 05:03:46;;;;;;;6.95;1.40;;;;;;;;;;5004207;28;20233;-63
2022/07/10 05:06:11;;;;;;;10.93;1.60;;;;;;;;;;5003058;28;20224;-63
2022/07/10 05:08:36;;;;;;;8.13;1.85;;;;;;;;;;5003767;28;20917;-64
2022/07/10 05:11:01;;;;;;;6.90;1.50;;;;;;;;;;5003443;28;20714;-64
2022/07/10 05:13:27;;;;;;;7.80;1.40;;;;;;;;;;4997517;28;20212;-64
2022/07/10 05:15:52;;;;;;;4.45;1.02;;;;;;;;;;4995497;28;20339;-64
2022/07/10 05:18:17;;;;;;;6.32;1.50;;;;;;;;;;4995049;28;20240;-64
2022/07/10 05:20:44;;;;;;;7.05;1.55;;;;;;;;;;4999949;28;20648;-64
2022/07/10 05:23:10;;;;;;;6.38;1.40;;;;;;;;;;5003398;28;20220;-64
2022/07/10 05:25:37;;;;;;;6.22;1.50;;;;;;;;;;5003588;28;20212;-64
2022/07/10 05:28:02;;;;;;;7.85;1.80;;;;;;;;;;5002996;28;20245;-64
2022/07/10 05:30:28;;;;;;;8.90;1.50;;;;;;;;;;5003848;28;20711;-64
2022/07/10 05:32:53;;;;;;;8.05;1.30;;;;;;;;;;5003559;28;20820;-64
2022/07/10 05:35:18;;;;;;;6.22;1.70;;;;;;;;;;4999075;28;20623;-64
2022/07/10 05:37:44;;;;;;;5.43;1.30;;;;;;;;;;5010559;28;20288;-64
2022/07/10 05:40:09;;;;;;;8.30;1.48;;;;;;;;;;5014414;28;20412;-64
2022/07/10 05:42:35;;;;;;;7.10;1.50;;;;;;;;;;5016928;28;20211;-63
2022/07/10 05:45:00;;;;;;;8.25;1.40;;;;;;;;;;5020644;28;20218;-64
2022/07/10 05:47:25;;;;;;;6.85;1.30;;;;;;;;;;5004913;28;20216;-64
2022/07/10 05:49:51;;;;;;;9.23;1.60;;;;;;;;;;5003027;28;20216;-64
2022/07/10 05:52:16;;;;;;;6.80;1.40;;;;;;;;;;5003111;28;20221;-63
2022/07/10 05:54:42;;;;;;;7.53;1.63;;;;;;;;;;5003861;28;20373;-64
2022/07/10 05:57:07;;;;;;;9.48;1.38;;;;;;;;;;5001581;28;20270;-63
2022/07/10 05:59:34;;;;;;;10.00;1.48;;;;;;;;;;4993800;28;20643;-64
2022/07/10 06:01:59;;;;;;;9.07;1.50;;;;;;;;;;5014107;28;20220;-64
2022/07/10 06:04:25;;;;;;;11.68;1.70;;;;;;;;;;5014130;28;20242;-64
2022/07/10 06:06:50;;;;;;;7.45;1.48;;;;;;;;;;5022864;28;20278;-64
2022/07/10 06:09:15;;;;;;;8.77;1.75;;;;;;;;;;5021706;28;20270;-64
2022/07/10 06:11:41;;;;;;;9.38;1.90;;;;;;;;;;5022900;28;20687;-64
2022/07/10 06:14:07;;;;;;;8.88;1.45;;;;;;;;;;5020564;28;20812;-64
2022/07/10 06:16:32;;;;;;;9.25;1.60;;;;;;;;;;5003227;28;20204;-64
2022/07/10 06:18:57;;;;;;;8.38;1.50;;;;;;;;;;5003260;28;20269;-64
2022/07/10 06:21:23;;;;;;;8.88;1.60;;;;;;;;;;4997674;28;20208;-64
2022/07/10 06:23:48;;;;;;;8.20;1.83;;;;;;;;;;4994428;28;20216;-64
2022/07/10 06:26:14;;;;;;;8.93;2.42;;;;;;;;;;4994193;28;20590;-64
2022/07/10 06:28:39;;;;;;;8.20;1.52;;;;;;;;;;5015881;28;20688;-64
2022/07/10 06:31:05;;;;;;;10.48;1.60;;;;;;;;;;5001572;28;20212;-64
2022/07/10 06:33:31;;;;;;;8.27;1.40;;;;;;;;;;5022215;28;20203;-64
2022/07/10 06:35:57;;;;;;;12.27;1.83;;;;;;;;;;5022250;28;20225;-64
2022/07/10 06:38:22;;;;;;;8.25;1.25;;;;;;;;;;5021390;28;20215;-64
2022/07/10 06:40:47;;;;;;;12.38;1.63;;;;;;;;;;5022674;28;20254;-64
2022/07/10 06:43:13;;;;;;;8.18;1.80;;;;;;;;;;5018969;28;21253;-64
2022/07/10 06:45:39;;;;;;;8.38;1.85;;;;;;;;;;5008157;28;20209;-64
2022/07/10 06:48:04;;;;;;;8.60;1.40;;;;;;;;;;4995298;28;20238;-64
2022/07/10 06:50:30;;;;;;;8.48;1.73;;;;;;;;;;5017103;28;20269;-64
2022/07/10 06:52:55;;;;;;;8.93;1.50;;;;;;;;;;5021575;28;20243;-65
2022/07/10 06:55:21;;;;;;;8.75;1.45;;;;;;;;;;5021960;28;20258;-64
2022/07/10 06:57:46;;;;;;;9.45;1.75;;;;;;;;;;5022151;28;20815;-65
2022/07/10 07:00:12;;;;;;;9.88;1.50;;;;;;;;;;5021858;28;20208;-64
2022/07/10 07:02:37;;;;;;;7.90;1.70;;;;;;;;;;5023349;28;20637;-64
2022/07/10 07:05:03;;;;;;;9.32;1.40;;;;;;;;;;5011987;28;20231;-64
2022/07/10 07:07:28;;;;;;;7.18;1.52;;;;;;;;;;5011829;28;20239;-65
2022/07/10 07:09:54;;;;;;;8.20;2.13;;;;;;;;;;5012653;28;20667;-66
2022/07/10 07:12:19;;;;;;;6.63;1.42;;;;;;;;;;5011692;28;20239;-66
2022/07/10 07:14:44;;;;;;;6.10;1.50;;;;;;;;;;5018269;28;20273;-66
2022/07/10 07:17:12;;;;;;;8.05;1.75;;;;;;;;;;5021789;28;20220;-66
2022/07/10 07:25:05;;;;;;;7.78;1.60;;;;;;;;;;5011941;28;20286;-66
2022/07/10 07:27:30;;;;;;;8.00;1.70;;;;;;;;;;5011569;28;20236;-67
2022/07/10 07:29:56;;;;;;;5.20;1.40;;;;;;;;;;5018007;28;20222;-66
2022/07/10 07:32:21;;;;;;;6.95;1.67;;;;;;;;;;5031610;28;20212;-66
2022/07/10 07:34:46;;;;;;;7.10;1.73;;;;;;;;;;5031308;28;20228;-66
2022/07/10 07:37:12;;;;;;;7.65;1.67;;;;;;;;;;5031501;28;20212;-66
2022/07/10 07:39:37;;;;;;;6.68;1.70;;;;;;;;;;5035203;28;20212;-67
2022/07/10 07:42:03;;;;;;;6.30;1.48;;;;;;;;;;5034798;28;20215;-67
2022/07/10 07:44:29;;;;;;;6.18;1.63;;;;;;;;;;5035378;28;20762;-67
2022/07/10 07:46:54;;;;;;;8.90;1.80;;;;;;;;;;5035679;28;20216;-68
2022/07/10 07:49:19;;;;;;;7.65;1.52;;;;;;;;;;5034182;28;20671;-68
2022/07/10 07:51:44;;;;;;;6.22;1.55;;;;;;;;;;5035822;28;20214;-68
2022/07/10 07:54:10;;;;;;;7.07;1.60;;;;;;;;;;5034981;28;20311;-67
2022/07/10 07:56:35;;;;;;;7.32;1.75;;;;;;;;;;5034782;28;20302;-66
2022/07/10 07:59:00;;;;;;;6.03;1.40;;;;;;;;;;5034793;28;20228;-64
2022/07/10 08:01:26;;;;;;;6.35;1.60;;;;;;;;;;5034888;28;20332;-65
2022/07/10 08:03:51;;;;;;;5.82;1.80;;;;;;;;;;5034349;28;20315;-66
2022/07/10 08:06:17;;;;;;;7.57;1.55;;;;;;;;;;5034638;28;20626;-66
2022/07/10 08:08:44;;;;;;;8.05;1.65;;;;;;;;;;5033466;28;20247;-67
2022/07/10 08:11:09;;;;;;;6.40;1.83;;;;;;;;;;5034765;28;20294;-68
2022/07/10 08:13:34;;;;;;;9.43;1.90;;;;;;;;;;5033056;28;20258;-71
2022/07/10 08:16:00;;;;;;;5.28;1.73;;;;;;;;;;5033889;28;20649;-72
2022/07/10 08:18:25;;;;;;;6.85;1.83;;;;;;;;;;5034901;28;20266;-70
2022/07/10 08:20:50;;;;;;;6.53;1.70;;;;;;;;;;5035030;28;20254;-70
2022/07/10 08:23:16;;;;;;;6.63;1.60;;;;;;;;;;5033582;28;20220;-70
2022/07/10 08:25:41;;;;;;;7.10;1.70;;;;;;;;;;5035133;28;20200;-70
2022/07/10 08:28:06;;;;;;;4.97;1.58;;;;;;;;;;5034498;28;20591;-70
2022/07/10 08:30:32;;;;;;;6.72;1.30;;;;;;;;;;5033830;28;20216;-68
2022/07/10 08:32:58;;;;;;;5.28;1.40;;;;;;;;;;5035038;28;20208;-69
2022/07/10 08:35:23;;;;;;;3.88;1.27;;;;;;;;;;5034083;28;20219;-68
2022/07/10 08:37:48;;;;;;;4.82;1.30;;;;;;;;;;5034209;28;20231;-67
2022/07/10 08:40:14;;;;;;;5.55;1.60;;;;;;;;;;5034285;28;20290;-68
2022/07/10 08:42:40;;;;;;;8.98;1.80;;;;;;;;;;5034817;28;20362;-66
2022/07/10 08:45:06;;;;;;;7.47;1.83;;;;;;;;;;5033310;28;20227;-65
2022/07/10 08:47:34;;;;;;;5.70;1.45;;;;;;;;;;5034727;28;20233;-65
2022/07/10 08:49:59;;;;;;;5.88;1.70;;;;;;;;;;5016775;28;20212;-65
2022/07/10 08:52:26;;;;;;;7.95;1.90;;;;;;;;;;5033199;28;20210;-65
2022/07/10 08:54:52;;;;;;;8.13;2.28;;;;;;;;;;5034298;28;20237;-66
2022/07/10 08:57:18;;;;;;;7.10;1.60;;;;;;;;;;5036509;28;20686;-65
2022/07/10 08:59:43;;;;;;;5.85;1.55;;;;;;;;;;5036016;28;20207;-65
2022/07/10 09:02:08;;;;;;;7.57;1.80;;;;;;;;;;5053735;28;20218;-65
2022/07/10 09:04:34;;;;;;;12.63;2.10;;;;;;;;;;5054084;28;20238;-65
2022/07/10 09:06:59;;;;;;;8.02;1.60;;;;;;;;;;5053291;28;20210;-65
2022/07/10 09:09:24;;;;;;;6.95;1.60;;;;;;;;;;5053584;28;20211;-64
2022/07/10 09:11:54;;;;;;;7.85;1.80;;;;;;;;;;5054265;28;20199;-65
2022/07/10 09:14:23;;;;;;;8.02;1.60;;;;;;;;;;5032554;28;20242;-65
2022/07/10 09:16:49;;;;;;;6.13;1.70;;;;;;;;;;5042137;28;20705;-65
2022/07/10 09:19:15;;;;;;;10.18;1.70;;;;;;;;;;5032843;28;20224;-64
2022/07/10 09:21:41;;;;;;;7.55;1.80;;;;;;;;;;5033963;28;20204;-64
2022/07/10 09:24:07;;;;;;;11.35;1.50;;;;;;;;;;5033536;28;20657;-64
2022/07/10 09:26:33;;;;;;;6.65;1.40;;;;;;;;;;5033086;28;20216;-65
2022/07/10 09:29:08;;;;;;;4.70;1.27;;;;;;;;;;5033699;28;20269;-64
2022/07/10 09:31:50;;;;;;;5.60;1.40;;;;;;;;;;5039977;28;20239;-64
2022/07/10 09:34:15;;;;;;;7.40;1.45;;;;;;;;;;5006593;28;21062;-65
2022/07/10 09:36:40;;;;;;;9.02;1.70;;;;;;;;;;5003881;28;20702;-64
2022/07/10 09:39:06;;;;;;;7.10;1.50;;;;;;;;;;5018039;28;20215;-64
2022/07/10 09:41:32;;;;;;;7.15;1.38;;;;;;;;;;4991395;28;20741;-64
2022/07/10 09:43:59;;;;;;;7.35;1.50;;;;;;;;;;5027072;28;20204;-64
2022/07/10 09:46:25;;;;;;;7.03;1.48;;;;;;;;;;5026272;28;20667;-65
2022/07/10 09:49:04;;;;;;;6.57;1.50;;;;;;;;;;5026057;28;20223;-64
2022/07/10 09:51:31;;;;;;;5.50;1.40;;;;;;;;;;5026825;28;20330;-64
2022/07/10 09:53:57;;;;;;;8.35;1.50;;;;;;;;;;5026245;28;20239;-64
2022/07/10 09:56:22;;;;;;;6.20;1.58;;;;;;;;;;5020612;28;20631;-64
2022/07/10 09:58:47;;;;;;;5.10;1.30;;;;;;;;;;5018726;28;20645;-64
2022/07/10 10:01:13;;;;;;;5.05;1.30;;;;;;;;;;4995570;28;20770;-64
2022/07/10 10:03:38;;;;;;;4.65;1.23;;;;;;;;;;5005086;28;20220;-64
2022/07/10 10:06:04;;;;;;;4.05;1.30;;;;;;;;;;5006795;28;20216;-64
2022/07/10 10:08:30;;;;;;;3.42;1.20;;;;;;;;;;5025297;28;20273;-64
2022/07/10 10:10:56;;;;;;;4.53;1.13;;;;;;;;;;5026772;28;20215;-64
2022/07/10 10:13:22;;;;;;;3.30;1.30;;;;;;;;;;4994871;28;20296;-65
2022/07/10 10:15:48;;;;;;;6.32;1.77;;;;;;;;;;5006711;28;20636;-64
2022/07/10 10:18:15;;;;;;;4.05;1.23;;;;;;;;;;5022726;28;20211;-64
2022/07/10 10:20:41;;;;;;;6.28;1.52;;;;;;;;;;5018338;28;20319;-64
2022/07/10 10:23:13;;;;;;;4.70;1.30;;;;;;;;;;5017188;28;20216;-65
2022/07/10 10:25:39;;;;;;;5.75;1.33;;;;;;;;;;5021419;28;20239;-64
2022/07/10 10:28:06;;;;;;;4.57;1.20;;;;;;;;;;5026277;28;20566;-64
2022/07/10 10:30:31;;;;;;;4.65;1.20;;;;;;;;;;5014895;28;20211;-64
2022/07/10 10:32:57;;;;;;;8.13;1.30;;;;;;;;;;5007677;28;20632;-62
2022/07/10 10:35:41;;;;;;;5.65;1.10;;;;;;;;;;5007261;28;20238;-62
2022/07/10 10:38:06;;;;;;;6.68;1.38;;;;;;;;;;5006240;28;20879;-63
2022/07/10 10:40:32;;;;;;;5.07;1.13;;;;;;;;;;5006312;28;20559;-62
2022/07/10 10:42:58;;;;;;;4.40;0.98;;;;;;;;;;5000492;28;20216;-63
2022/07/10 10:45:27;;;;;;;4.72;1.30;;;;;;;;;;4998877;28;20618;-63
2022/07/10 10:47:59;;;;;;;4.88;1.10;;;;;;;;;;4996292;28;20217;-62
2022/07/10 10:50:40;;;;;;;5.03;1.17;;;;;;;;;;5019164;28;20216;-60
2022/07/10 10:53:13;;;;;;;7.40;1.30;;;;;;;;;;5004411;28;20773;-61
2022/07/10 10:55:38;;;;;;;5.10;1.40;;;;;;;;;;5039468;28;20227;-63
2022/07/10 10:58:11;;;;;;;4.72;1.10;;;;;;;;;;5032631;28;20219;-61
2022/07/10 11:00:37;;;;;;;3.58;1.27;;;;;;;;;;5027247;28;20665;-60
2022/07/10 11:03:12;;;;;;;6.93;1.25;;;;;;;;;;5025430;28;20207;-61
2022/07/10 11:05:38;;;;;;;5.90;1.35;;;;;;;;;;5019144;28;21019;-62
2022/07/10 11:08:03;;;;;;;4.93;1.42;;;;;;;;;;5019426;28;20529;-61
2022/07/10 11:10:35;;;;;;;4.53;1.50;;;;;;;;;;5020124;28;20211;-61
2022/07/10 11:13:02;;;;;;;7.45;1.98;;;;;;;;;;5035763;28;20346;-62
2022/07/10 11:15:34;;;;;;;4.75;1.38;;;;;;;;;;5030385;28;20215;-63
2022/07/10 11:18:03;;;;;;;5.85;1.40;;;;;;;;;;5028371;28;20291;-62
2022/07/10 11:20:30;;;;;;;4.93;1.40;;;;;;;;;;5048417;28;20685;-62
2022/07/10 11:23:06;;;;;;;4.93;1.30;;;;;;;;;;5032179;28;20254;-62
2022/07/10 11:25:44;;;;;;;4.57;1.10;;;;;;;;;;5048401;28;20661;-62
2022/07/10 11:28:11;;;;;;;3.95;1.00;;;;;;;;;;5041839;28;20652;-63
2022/07/10 11:30:43;;;;;;;3.58;0.82;;;;;;;;;;5030060;28;20200;-62
2022/07/10 11:33:09;;;;;;;2.75;0.98;;;;;;;;;;5001323;28;20220;-63
2022/07/10 11:35:34;;;;;;;2.97;1.05;;;;;;;;;;5022299;28;20222;-62
2022/07/10 11:37:59;;;;;;;4.97;1.25;;;;;;;;;;5009157;28;20224;-62
2022/07/10 11:40:25;;;;;;;4.47;1.00;;;;;;;;;;5021408;28;20289;-62
2022/07/10 11:42:52;;;;;;;4.05;1.20;;;;;;;;;;5049194;28;20207;-62
2022/07/10 11:45:22;;;;;;;3.72;1.00;;;;;;;;;;5048630;28;20247;-61
2022/07/10 11:47:47;;;;;;;3.33;1.10;;;;;;;;;;5042774;28;20227;-61
2022/07/10 11:50:12;;;;;;;4.03;1.05;;;;;;;;;;5017689;28;20581;-62
2022/07/10 11:52:38;;;;;;;4.65;1.00;;;;;;;;;;5021426;28;20788;-61
2022/07/10 11:55:14;;;;;;;5.20;0.98;;;;;;;;;;5020296;28;20261;-61
2022/07/10 11:57:41;;;;;;;4.07;1.00;;;;;;;;;;5029014;28;20769;-61
2022/07/10 12:00:07;;;;;;;3.00;1.10;;;;;;;;;;5047546;28;20219;-61
2022/07/10 12:02:32;;;;;;;2.97;0.90;;;;;;;;;;5028530;28;20208;-61
2022/07/10 12:04:58;;;;;;;3.60;0.90;;;;;;;;;;5029101;28;20576;-62
2022/07/10 12:07:23;;;;;;;5.50;1.10;;;;;;;;;;5028772;28;20557;-61
2022/07/10 12:09:55;;;;;;;3.77;1.10;;;;;;;;;;5046068;28;20419;-61
2022/07/10 12:12:22;;;;;;;5.53;1.30;;;;;;;;;;5037252;28;20246;-63
2022/07/10 12:14:47;;;;;;;4.45;1.00;;;;;;;;;;5020695;28;20270;-60
2022/07/10 12:17:12;;;;;;;4.00;1.10;;;;;;;;;;5019943;28;20426;-61
2022/07/10 12:19:38;;;;;;;2.50;0.90;;;;;;;;;;5026405;28;20211;-61
2022/07/10 12:22:04;;;;;;;4.03;1.10;;;;;;;;;;5027367;28;20433;-62
2022/07/10 12:24:29;;;;;;;4.40;0.90;;;;;;;;;;5024492;28;20204;-61
2022/07/10 12:26:56;;;;;;;3.05;0.90;;;;;;;;;;5004003;28;20209;-63
2022/07/10 12:29:22;;;;;;;3.38;0.90;;;;;;;;;;5019388;28;20215;-62
2022/07/10 12:31:49;;;;;;;6.45;1.00;;;;;;;;;;5028928;28;20294;-62
2022/07/10 12:34:14;;;;;;;2.67;1.00;;;;;;;;;;5023069;28;20611;-61
2022/07/10 12:36:42;;;;;;;3.42;1.02;;;;;;;;;;5033551;28;20631;-61
2022/07/10 12:39:07;;;;;;;2.53;0.98;;;;;;;;;;5039626;28;20246;-62
2022/07/10 12:41:33;;;;;;;3.90;1.02;;;;;;;;;;5032904;28;20274;-62
2022/07/10 12:43:58;;;;;;;3.58;0.90;;;;;;;;;;5028136;28;20287;-62
2022/07/10 12:46:24;;;;;;;4.45;1.20;;;;;;;;;;5046973;28;20810;-61
2022/07/10 12:49:12;;;;;;;2.55;0.90;;;;;;;;;;5048056;28;20252;-62
2022/07/10 12:51:45;;;;;;;4.60;1.08;;;;;;;;;;5046595;28;20219;-62
2022/07/10 12:54:29;;;;;;;3.50;1.05;;;;;;;;;;5047438;28;20223;-61
2022/07/10 12:57:01;;;;;;;4.15;0.82;;;;;;;;;;5044259;28;20235;-62
2022/07/10 12:59:26;;;;;;;3.72;0.95;;;;;;;;;;5040101;28;20207;-62
2022/07/10 13:01:51;;;;;;;4.78;1.00;;;;;;;;;;5024458;28;20230;-62
2022/07/10 13:04:22;;;;;;;5.47;1.33;;;;;;;;;;5022311;28;20247;-62
2022/07/10 13:06:47;;;;;;;2.42;0.80;;;;;;;;;;5027897;28;20218;-62
2022/07/10 13:09:19;;;;;;;3.63;1.00;;;;;;;;;;5006816;28;20238;-61
2022/07/10 13:11:44;;;;;;;3.97;1.00;;;;;;;;;;5021451;28;20569;-62
2022/07/10 13:14:10;;;;;;;4.32;1.00;;;;;;;;;;5027801;28;20223;-61
2022/07/10 13:16:35;;;;;;;4.75;0.90;;;;;;;;;;5028126;28;20670;-63
2022/07/10 13:19:00;;;;;;;3.10;0.93;;;;;;;;;;5025405;28;20579;-61
2022/07/10 13:21:26;;;;;;;7.38;1.05;;;;;;;;;;5019655;28;20240;-62
2022/07/10 13:23:52;;;;;;;2.65;0.70;;;;;;;;;;5012711;28;20208;-61
2022/07/10 13:26:17;;;;;;;4.05;0.88;;;;;;;;;;5000647;28;20258;-62
2022/07/10 13:28:43;;;;;;;4.30;0.90;;;;;;;;;;5000948;28;20335;-62
2022/07/10 13:31:08;;;;;;;3.28;0.88;;;;;;;;;;5016860;28;20756;-62
2022/07/10 13:33:34;;;;;;;4.05;1.20;;;;;;;;;;5026775;28;20235;-61
2022/07/10 13:36:00;;;;;;;4.90;1.13;;;;;;;;;;5026822;28;20759;-61
2022/07/10 13:38:25;;;;;;;3.65;0.90;;;;;;;;;;5027197;28;20220;-61
2022/07/10 13:40:51;;;;;;;3.55;0.80;;;;;;;;;;5027152;28;20254;-61
2022/07/10 13:43:16;;;;;;;2.65;0.80;;;;;;;;;;5020639;28;20243;-61
2022/07/10 13:45:43;;;;;;;4.82;1.00;;;;;;;;;;5019287;28;20248;-61
2022/07/10 13:48:10;;;;;;;2.78;0.85;;;;;;;;;;5018407;28;20226;-61
2022/07/10 13:50:38;;;;;;;2.83;0.90;;;;;;;;;;5025959;28;20208;-61
2022/07/10 13:53:04;;;;;;;3.60;0.98;;;;;;;;;;5027103;28;20262;-61
2022/07/10 13:55:29;;;;;;;3.42;0.90;;;;;;;;;;5026177;28;20695;-61
2022/07/10 13:57:54;;;;;;;4.18;0.82;;;;;;;;;;5028705;28;20216;-61
2022/07/10 14:00:20;;;;;;;4.40;0.75;;;;;;;;;;5027120;28;20769;-61
2022/07/10 14:02:45;;;;;;;3.22;0.80;;;;;;;;;;5028821;28;20721;-61
2022/07/10 14:05:10;;;;;;;3.10;1.00;;;;;;;;;;5023514;28;20220;-61
2022/07/10 14:07:36;;;;;;;4.95;1.15;;;;;;;;;;5023590;28;20354;-61
2022/07/10 14:10:02;;;;;;;3.70;0.80;;;;;;;;;;5020760;28;20702;-63
2022/07/10 14:12:27;;;;;;;2.72;0.98;;;;;;;;;;5024389;28;20212;-61
2022/07/10 14:14:53;;;;;;;4.13;1.10;;;;;;;;;;5027096;28;20238;-67
2022/07/10 14:17:18;;;;;;;2.65;1.02;;;;;;;;;;5027502;28;20298;-62
2022/07/10 14:19:43;;;;;;;4.75;1.02;;;;;;;;;;5027787;28;20270;-62
2022/07/10 14:22:09;;;;;;;3.72;0.85;;;;;;;;;;5026842;28;20250;-63
2022/07/10 14:24:34;;;;;;;4.82;1.02;;;;;;;;;;5029781;28;20656;-62
2022/07/10 14:26:59;;;;;;;4.55;0.90;;;;;;;;;;5004710;28;20730;-62
2022/07/10 14:29:25;;;;;;;4.60;1.77;;;;;;;;;;5010042;28;20220;-62
2022/07/10 14:31:51;;;;;;;4.70;0.95;;;;;;;;;;5018464;28;20634;-62
2022/07/10 14:34:17;;;;;;;2.92;0.88;;;;;;;;;;5038434;28;20224;-62
2022/07/10 14:36:42;;;;;;;5.10;1.10;;;;;;;;;;5045199;28;20211;-61
2022/07/10 14:39:07;;;;;;;3.80;0.90;;;;;;;;;;5045201;28;20227;-62
2022/07/10 14:41:33;;;;;;;3.88;0.98;;;;;;;;;;5035332;28;20223;-60
2022/07/10 14:43:58;;;;;;;4.97;1.08;;;;;;;;;;5025785;28;20210;-60